createdAt,value
2023-05-19T00:00:10.064Z,1028.69
2023-05-19T00:00:19.484Z,1028.72
2023-05-19T00:00:28.900Z,1028.76
2023-05-19T00:00:38.270Z,1028.78
2023-05-19T00:00:50.040Z,1028.70
2023-05-19T00:00:57.109Z,1028.76
2023-05-19T00:01:15.906Z,1028.72
2023-05-19T00:01:25.292Z,1028.77
2023-05-19T00:01:34.715Z,1028.77
2023-05-19T00:01:44.136Z,1028.72
2023-05-19T00:01:53.552Z,1028.70
2023-05-19T00:02:02.912Z,1028.76
2023-05-19T00:02:21.744Z,1028.69
2023-05-19T00:02:31.157Z,1028.71
2023-05-19T00:02:40.624Z,1028.82
2023-05-19T00:02:49.985Z,1028.67
2023-05-19T00:02:59.354Z,1028.70
2023-05-19T00:03:08.764Z,1028.73
2023-05-19T00:03:27.536Z,1028.81
2023-05-19T00:03:36.901Z,1028.70
2023-05-19T00:03:46.252Z,1028.69
2023-05-19T00:03:55.655Z,1028.71
2023-05-19T00:04:05.076Z,1028.65
2023-05-19T00:04:14.477Z,1028.70
2023-05-19T00:04:33.266Z,1028.67
2023-05-19T00:04:42.646Z,1028.71
2023-05-19T00:04:52.064Z,1028.75
2023-05-19T00:05:01.448Z,1028.69
2023-05-19T00:05:10.855Z,1028.65
2023-05-19T00:05:20.415Z,1028.68
2023-05-19T00:05:39.158Z,1028.73
2023-05-19T00:05:48.488Z,1028.73
2023-05-19T00:05:57.844Z,1028.73
2023-05-19T00:06:07.489Z,1028.63
2023-05-19T00:06:16.852Z,1028.73
2023-05-19T00:06:26.102Z,1028.70
2023-05-19T00:06:44.968Z,1028.74
2023-05-19T00:06:54.376Z,1028.68
2023-05-19T00:07:03.776Z,1028.73
2023-05-19T00:07:13.164Z,1028.69
2023-05-19T00:07:22.544Z,1028.69
2023-05-19T00:07:31.967Z,1028.75
2023-05-19T00:07:50.749Z,1028.69
2023-05-19T00:08:00.228Z,1028.66
2023-05-19T00:08:09.563Z,1028.66
2023-05-19T00:08:18.973Z,1028.68
2023-05-19T00:08:28.360Z,1028.72
2023-05-19T00:08:37.754Z,1028.72
2023-05-19T00:08:56.562Z,1028.65
2023-05-19T00:09:05.962Z,1028.70
2023-05-19T00:09:15.350Z,1028.64
2023-05-19T00:09:24.771Z,1028.72
2023-05-19T00:09:34.155Z,1028.61
2023-05-19T00:09:43.541Z,1028.77
2023-05-19T00:10:02.390Z,1028.71
2023-05-19T00:10:11.772Z,1028.65
2023-05-19T00:10:21.173Z,1028.72
2023-05-19T00:10:30.784Z,1028.67
2023-05-19T00:10:39.999Z,1028.70
2023-05-19T00:10:49.420Z,1028.61
2023-05-19T00:11:08.182Z,1028.74
2023-05-19T00:11:17.590Z,1028.68
2023-05-19T00:11:27.006Z,1028.71
2023-05-19T00:11:36.409Z,1028.64
2023-05-19T00:11:45.824Z,1028.72
2023-05-19T00:12:22.641Z,1028.70
2023-05-19T00:12:32.113Z,1028.70
2023-05-19T00:12:41.502Z,1028.71
2023-05-19T00:12:52.460Z,1028.69
2023-05-19T00:13:00.309Z,1028.72
2023-05-19T00:13:09.688Z,1028.70
2023-05-19T00:13:28.493Z,1028.71
2023-05-19T00:13:37.883Z,1028.68
2023-05-19T00:13:47.285Z,1028.73
2023-05-19T00:13:56.745Z,1028.70
2023-05-19T00:14:06.133Z,1028.67
2023-05-19T00:14:15.534Z,1028.73
2023-05-19T00:14:34.304Z,1028.70
2023-05-19T00:14:43.687Z,1028.77
2023-05-19T00:14:53.097Z,1028.66
2023-05-19T00:15:02.527Z,1028.70
2023-05-19T00:15:11.941Z,1028.68
2023-05-19T00:15:21.331Z,1028.67
2023-05-19T00:15:40.217Z,1028.69
2023-05-19T00:15:49.572Z,1028.79
2023-05-19T00:15:58.986Z,1028.74
2023-05-19T00:16:08.389Z,1028.67
2023-05-19T00:16:17.807Z,1028.71
2023-05-19T00:16:27.181Z,1028.70
2023-05-19T00:16:46.480Z,1028.72
2023-05-19T00:16:55.878Z,1028.75
2023-05-19T00:17:05.273Z,1028.73
2023-05-19T00:17:14.701Z,1028.76
2023-05-19T00:17:24.100Z,1028.73
2023-05-19T00:17:33.549Z,1028.73
2023-05-19T00:17:52.389Z,1028.76
2023-05-19T00:18:01.801Z,1028.83
2023-05-19T00:18:11.101Z,1028.78
2023-05-19T00:18:20.499Z,1028.75
2023-05-19T00:18:29.967Z,1028.76
2023-05-19T00:18:39.335Z,1028.75
2023-05-19T00:18:58.184Z,1028.71
2023-05-19T00:19:07.586Z,1028.78
2023-05-19T00:19:17.156Z,1028.69
2023-05-19T00:19:26.571Z,1028.76
2023-05-19T00:19:35.818Z,1028.75
2023-05-19T00:19:45.323Z,1028.79
2023-05-19T00:20:04.034Z,1028.71
2023-05-19T00:20:13.417Z,1028.72
2023-05-19T00:20:22.822Z,1028.74
2023-05-19T00:20:32.426Z,1028.76
2023-05-19T00:20:41.634Z,1028.76
2023-05-19T00:20:51.051Z,1028.69
2023-05-19T00:21:09.869Z,1028.70
2023-05-19T00:21:19.288Z,1028.77
2023-05-19T00:21:28.752Z,1028.71
2023-05-19T00:21:38.134Z,1028.67
2023-05-19T00:21:47.561Z,1028.70
2023-05-19T00:21:56.971Z,1028.70
2023-05-19T00:22:15.752Z,1028.63
2023-05-19T00:22:25.128Z,1028.72
2023-05-19T00:22:34.514Z,1028.79
2023-05-19T00:22:43.919Z,1028.73
2023-05-19T00:22:53.331Z,1028.73
2023-05-19T00:23:02.758Z,1028.74
2023-05-19T00:23:21.571Z,1028.72
2023-05-19T00:23:30.975Z,1028.73
2023-05-19T00:23:40.375Z,1028.70
2023-05-19T00:23:49.803Z,1028.71
2023-05-19T00:23:59.201Z,1028.68
2023-05-19T00:24:08.606Z,1028.68
2023-05-19T00:24:27.406Z,1028.73
2023-05-19T00:24:36.801Z,1028.70
2023-05-19T00:24:46.181Z,1028.70
2023-05-19T00:24:55.636Z,1028.74
2023-05-19T00:25:05.026Z,1028.69
2023-05-19T00:25:14.480Z,1028.74
2023-05-19T00:25:33.274Z,1028.71
2023-05-19T00:25:42.676Z,1028.68
2023-05-19T00:25:52.184Z,1028.71
2023-05-19T00:26:01.525Z,1028.75
2023-05-19T00:26:10.907Z,1028.71
2023-05-19T00:26:20.327Z,1028.80
2023-05-19T00:26:39.216Z,1028.69
2023-05-19T00:26:48.627Z,1028.67
2023-05-19T00:26:58.048Z,1028.73
2023-05-19T00:27:07.419Z,1028.74
2023-05-19T00:27:16.820Z,1028.75
2023-05-19T00:27:26.189Z,1028.73
2023-05-19T00:27:44.997Z,1028.76
2023-05-19T00:27:54.390Z,1028.67
2023-05-19T00:28:03.796Z,1028.73
2023-05-19T00:28:13.190Z,1028.73
2023-05-19T00:28:22.602Z,1028.74
2023-05-19T00:28:32.031Z,1028.71
2023-05-19T00:28:50.804Z,1028.72
2023-05-19T00:29:00.191Z,1028.68
2023-05-19T00:29:09.585Z,1028.68
2023-05-19T00:29:18.949Z,1028.65
2023-05-19T00:29:28.327Z,1028.68
2023-05-19T00:29:37.708Z,1028.73
2023-05-19T00:29:56.524Z,1028.67
2023-05-19T00:30:05.947Z,1028.66
2023-05-19T00:30:15.370Z,1028.66
2023-05-19T00:30:24.758Z,1028.71
2023-05-19T00:30:34.410Z,1028.70
2023-05-19T00:30:43.557Z,1028.66
2023-05-19T00:31:02.370Z,1028.66
2023-05-19T00:31:11.789Z,1028.66
2023-05-19T00:31:21.289Z,1028.70
2023-05-19T00:31:30.770Z,1028.67
2023-05-19T00:31:40.314Z,1028.60
2023-05-19T00:31:49.716Z,1028.67
2023-05-19T00:32:08.651Z,1028.65
2023-05-19T00:32:17.951Z,1028.63
2023-05-19T00:32:27.321Z,1028.67
2023-05-19T00:32:36.699Z,1028.58
2023-05-19T00:32:46.126Z,1028.70
2023-05-19T00:32:55.533Z,1028.64
2023-05-19T00:33:14.296Z,1028.65
2023-05-19T00:33:23.698Z,1028.63
2023-05-19T00:33:33.136Z,1028.62
2023-05-19T00:33:42.583Z,1028.66
2023-05-19T00:33:52.044Z,1028.62
2023-05-19T00:34:04.597Z,1028.58
2023-05-19T00:34:20.771Z,1028.57
2023-05-19T00:34:30.139Z,1028.63
2023-05-19T00:34:39.523Z,1028.61
2023-05-19T00:34:48.909Z,1028.61
2023-05-19T00:34:58.328Z,1028.62
2023-05-19T00:35:07.715Z,1028.65
2023-05-19T00:35:26.513Z,1028.62
2023-05-19T00:35:35.927Z,1028.61
2023-05-19T00:35:45.348Z,1028.66
2023-05-19T00:35:54.766Z,1028.56
2023-05-19T00:36:04.203Z,1028.60
2023-05-19T00:36:13.582Z,1028.56
2023-05-19T00:36:32.414Z,1028.61
2023-05-19T00:36:41.862Z,1028.60
2023-05-19T00:36:51.253Z,1028.64
2023-05-19T00:37:00.638Z,1028.60
2023-05-19T00:37:10.079Z,1028.58
2023-05-19T00:37:19.478Z,1028.63
2023-05-19T00:37:38.286Z,1028.57
2023-05-19T00:37:47.679Z,1028.56
2023-05-19T00:37:57.085Z,1028.57
2023-05-19T00:38:06.474Z,1028.49
2023-05-19T00:38:15.909Z,1028.60
2023-05-19T00:38:25.342Z,1028.53
2023-05-19T00:38:44.122Z,1028.60
2023-05-19T00:38:53.556Z,1028.61
2023-05-19T00:39:02.941Z,1028.60
2023-05-19T00:39:12.348Z,1028.55
2023-05-19T00:39:21.769Z,1028.61
2023-05-19T00:39:31.153Z,1028.54
2023-05-19T00:39:49.950Z,1028.56
2023-05-19T00:39:59.335Z,1028.58
2023-05-19T00:40:08.754Z,1028.57
2023-05-19T00:40:18.154Z,1028.55
2023-05-19T00:40:27.560Z,1028.52
2023-05-19T00:40:36.997Z,1028.57
2023-05-19T00:40:55.783Z,1028.57
2023-05-19T00:41:05.210Z,1028.50
2023-05-19T00:41:14.594Z,1028.61
2023-05-19T00:41:23.986Z,1028.55
2023-05-19T00:41:33.438Z,1028.45
2023-05-19T00:41:42.841Z,1028.58
2023-05-19T00:42:01.642Z,1028.50
2023-05-19T00:42:10.993Z,1028.50
2023-05-19T00:42:20.372Z,1028.57
2023-05-19T00:42:29.774Z,1028.57
2023-05-19T00:42:39.211Z,1028.60
2023-05-19T00:42:48.621Z,1028.58
2023-05-19T00:43:07.414Z,1028.59
2023-05-19T00:43:16.813Z,1028.53
2023-05-19T00:43:26.199Z,1028.56
2023-05-19T00:43:35.586Z,1028.55
2023-05-19T00:43:45.003Z,1028.56
2023-05-19T00:43:54.370Z,1028.53
2023-05-19T00:44:13.203Z,1028.58
2023-05-19T00:44:22.619Z,1028.56
2023-05-19T00:44:32.085Z,1028.54
2023-05-19T00:44:41.478Z,1028.53
2023-05-19T00:44:50.893Z,1028.55
2023-05-19T00:45:00.279Z,1028.53
2023-05-19T00:45:19.095Z,1028.52
2023-05-19T00:45:28.507Z,1028.52
2023-05-19T00:45:37.892Z,1028.51
2023-05-19T00:45:47.276Z,1028.55
2023-05-19T00:45:56.671Z,1028.52
2023-05-19T00:46:06.220Z,1028.46
2023-05-19T00:46:24.862Z,1028.54
2023-05-19T00:46:34.315Z,1028.48
2023-05-19T00:46:43.667Z,1028.49
2023-05-19T00:46:53.007Z,1028.37
2023-05-19T00:47:02.692Z,1028.45
2023-05-19T00:47:11.794Z,1028.43
2023-05-19T00:47:30.678Z,1028.49
2023-05-19T00:47:40.090Z,1028.50
2023-05-19T00:47:49.569Z,1028.50
2023-05-19T00:47:58.893Z,1028.43
2023-05-19T00:48:08.313Z,1028.51
2023-05-19T00:48:17.634Z,1028.37
2023-05-19T00:48:36.449Z,1028.45
2023-05-19T00:48:45.850Z,1028.45
2023-05-19T00:48:55.282Z,1028.35
2023-05-19T00:49:04.660Z,1028.45
2023-05-19T00:49:14.047Z,1028.40
2023-05-19T00:49:23.426Z,1028.45
2023-05-19T00:49:42.198Z,1028.47
2023-05-19T00:49:51.600Z,1028.41
2023-05-19T00:50:00.998Z,1028.41
2023-05-19T00:50:10.383Z,1028.46
2023-05-19T00:50:19.804Z,1028.42
2023-05-19T00:50:29.254Z,1028.37
2023-05-19T00:50:47.952Z,1028.45
2023-05-19T00:50:57.359Z,1028.39
2023-05-19T00:51:06.861Z,1028.41
2023-05-19T00:51:16.141Z,1028.45
2023-05-19T00:51:25.560Z,1028.45
2023-05-19T00:51:34.961Z,1028.40
2023-05-19T00:51:53.771Z,1028.46
2023-05-19T00:52:03.196Z,1028.44
2023-05-19T00:52:12.622Z,1028.49
2023-05-19T00:52:22.032Z,1028.47
2023-05-19T00:52:31.431Z,1028.44
2023-05-19T00:52:40.827Z,1028.44
2023-05-19T00:52:59.623Z,1028.45
2023-05-19T00:53:09.002Z,1028.46
2023-05-19T00:53:18.401Z,1028.42
2023-05-19T00:53:27.825Z,1028.44
2023-05-19T00:53:37.208Z,1028.41
2023-05-19T00:53:46.668Z,1028.44
2023-05-19T00:54:05.451Z,1028.38
2023-05-19T00:54:14.824Z,1028.47
2023-05-19T00:54:24.252Z,1028.42
2023-05-19T00:54:33.629Z,1028.46
2023-05-19T00:54:43.009Z,1028.48
2023-05-19T00:54:52.389Z,1028.47
2023-05-19T00:55:11.170Z,1028.43
2023-05-19T00:55:20.572Z,1028.49
2023-05-19T00:55:29.952Z,1028.48
2023-05-19T00:55:39.342Z,1028.49
2023-05-19T00:55:48.749Z,1028.43
2023-05-19T00:55:58.130Z,1028.46
2023-05-19T00:56:17.001Z,1028.49
2023-05-19T00:56:26.321Z,1028.50
2023-05-19T00:56:35.738Z,1028.45
2023-05-19T00:56:45.114Z,1028.47
2023-05-19T00:56:54.505Z,1028.50
2023-05-19T00:57:03.910Z,1028.39
2023-05-19T00:57:22.639Z,1028.47
2023-05-19T00:57:32.082Z,1028.50
2023-05-19T00:57:41.529Z,1028.45
2023-05-19T00:57:50.912Z,1028.44
2023-05-19T00:58:00.296Z,1028.50
2023-05-19T00:58:09.710Z,1028.45
2023-05-19T00:58:28.485Z,1028.51
2023-05-19T00:58:37.910Z,1028.46
2023-05-19T00:58:47.320Z,1028.49
2023-05-19T00:58:56.732Z,1028.46
2023-05-19T00:59:06.118Z,1028.47
2023-05-19T00:59:15.572Z,1028.49
2023-05-19T00:59:34.330Z,1028.45
2023-05-19T00:59:43.764Z,1028.44
2023-05-19T00:59:53.150Z,1028.46
2023-05-19T01:00:02.561Z,1028.50
2023-05-19T01:00:11.992Z,1028.53
2023-05-19T01:00:21.388Z,1028.48
2023-05-19T01:00:40.208Z,1028.47
2023-05-19T01:00:49.623Z,1028.51
2023-05-19T01:00:59.043Z,1028.48
2023-05-19T01:01:08.555Z,1028.54
2023-05-19T01:01:17.875Z,1028.51
2023-05-19T01:01:27.399Z,1028.49
2023-05-19T01:01:46.081Z,1028.49
2023-05-19T01:01:55.478Z,1028.51
2023-05-19T01:02:04.854Z,1028.46
2023-05-19T01:02:14.237Z,1028.51
2023-05-19T01:02:23.726Z,1028.49
2023-05-19T01:02:33.116Z,1028.51
2023-05-19T01:02:51.994Z,1028.50
2023-05-19T01:03:01.407Z,1028.46
2023-05-19T01:03:10.836Z,1028.45
2023-05-19T01:03:20.176Z,1028.50
2023-05-19T01:03:29.599Z,1028.54
2023-05-19T01:03:39.042Z,1028.46
2023-05-19T01:03:57.792Z,1028.49
2023-05-19T01:04:07.219Z,1028.57
2023-05-19T01:04:16.541Z,1028.51
2023-05-19T01:04:25.946Z,1028.52
2023-05-19T01:04:35.358Z,1028.54
2023-05-19T01:04:44.729Z,1028.54
2023-05-19T01:05:03.524Z,1028.48
2023-05-19T01:05:12.916Z,1028.48
2023-05-19T01:05:22.306Z,1028.48
2023-05-19T01:05:31.697Z,1028.45
2023-05-19T01:05:41.076Z,1028.52
2023-05-19T01:05:50.487Z,1028.46
2023-05-19T01:06:09.289Z,1028.46
2023-05-19T01:06:18.739Z,1028.51
2023-05-19T01:06:28.112Z,1028.52
2023-05-19T01:06:37.533Z,1028.44
2023-05-19T01:06:46.973Z,1028.50
2023-05-19T01:06:56.371Z,1028.51
2023-05-19T01:07:15.173Z,1028.50
2023-05-19T01:07:24.565Z,1028.45
2023-05-19T01:07:33.966Z,1028.49
2023-05-19T01:07:43.346Z,1028.52
2023-05-19T01:07:52.714Z,1028.46
2023-05-19T01:08:02.128Z,1028.45
2023-05-19T01:08:20.936Z,1028.49
2023-05-19T01:08:30.340Z,1028.52
2023-05-19T01:08:39.739Z,1028.48
2023-05-19T01:08:49.132Z,1028.51
2023-05-19T01:08:58.526Z,1028.47
2023-05-19T01:09:07.931Z,1028.42
2023-05-19T01:09:26.745Z,1028.49
2023-05-19T01:09:36.131Z,1028.46
2023-05-19T01:09:45.543Z,1028.47
2023-05-19T01:09:54.934Z,1028.46
2023-05-19T01:10:04.335Z,1028.46
2023-05-19T01:10:13.725Z,1028.42
2023-05-19T01:10:32.776Z,1028.48
2023-05-19T01:10:41.943Z,1028.51
2023-05-19T01:10:51.365Z,1028.48
2023-05-19T01:11:00.779Z,1028.49
2023-05-19T01:11:10.267Z,1028.46
2023-05-19T01:11:19.641Z,1028.47
2023-05-19T01:11:38.439Z,1028.46
2023-05-19T01:11:47.823Z,1028.49
2023-05-19T01:11:57.212Z,1028.44
2023-05-19T01:12:06.651Z,1028.39
2023-05-19T01:12:16.075Z,1028.45
2023-05-19T01:12:25.477Z,1028.49
2023-05-19T01:12:44.296Z,1028.48
2023-05-19T01:12:53.681Z,1028.45
2023-05-19T01:13:03.069Z,1028.40
2023-05-19T01:13:12.465Z,1028.43
2023-05-19T01:13:21.900Z,1028.51
2023-05-19T01:13:31.270Z,1028.46
2023-05-19T01:13:50.070Z,1028.40
2023-05-19T01:13:59.464Z,1028.46
2023-05-19T01:14:08.894Z,1028.46
2023-05-19T01:14:18.300Z,1028.51
2023-05-19T01:14:27.686Z,1028.38
2023-05-19T01:14:37.106Z,1028.35
2023-05-19T01:14:55.897Z,1028.42
2023-05-19T01:15:05.275Z,1028.46
2023-05-19T01:15:14.737Z,1028.44
2023-05-19T01:15:24.136Z,1028.42
2023-05-19T01:15:33.521Z,1028.39
2023-05-19T01:15:42.902Z,1028.40
2023-05-19T01:16:01.742Z,1028.43
2023-05-19T01:16:11.123Z,1028.43
2023-05-19T01:16:20.527Z,1028.40
2023-05-19T01:16:29.891Z,1028.40
2023-05-19T01:16:39.325Z,1028.41
2023-05-19T01:16:48.884Z,1028.42
2023-05-19T01:17:07.508Z,1028.37
2023-05-19T01:17:16.871Z,1028.45
2023-05-19T01:17:26.325Z,1028.44
2023-05-19T01:17:35.669Z,1028.30
2023-05-19T01:17:45.125Z,1028.39
2023-05-19T01:17:54.452Z,1028.40
2023-05-19T01:18:13.373Z,1028.41
2023-05-19T01:18:22.707Z,1028.41
2023-05-19T01:18:32.091Z,1028.38
2023-05-19T01:18:41.528Z,1028.35
2023-05-19T01:18:50.942Z,1028.41
2023-05-19T01:19:00.339Z,1028.38
2023-05-19T01:19:19.187Z,1028.38
2023-05-19T01:19:28.449Z,1028.37
2023-05-19T01:19:37.832Z,1028.39
2023-05-19T01:19:47.316Z,1028.41
2023-05-19T01:19:56.713Z,1028.38
2023-05-19T01:20:06.159Z,1028.35
2023-05-19T01:20:24.910Z,1028.40
2023-05-19T01:20:34.390Z,1028.35
2023-05-19T01:20:43.701Z,1028.41
2023-05-19T01:20:53.094Z,1028.39
2023-05-19T01:21:02.529Z,1028.40
2023-05-19T01:21:11.930Z,1028.39
2023-05-19T01:21:30.745Z,1028.47
2023-05-19T01:21:40.215Z,1028.39
2023-05-19T01:21:49.608Z,1028.38
2023-05-19T01:21:59.074Z,1028.38
2023-05-19T01:22:08.468Z,1028.38
2023-05-19T01:22:18.434Z,1028.42
2023-05-19T01:28:10.583Z,1028.40
2023-05-19T01:29:26.189Z,1028.44
2023-05-19T01:30:34.008Z,1028.45
2023-05-19T01:31:49.317Z,1028.42
2023-05-19T01:32:50.579Z,1028.45
2023-05-19T01:32:59.864Z,1028.46
2023-05-19T01:33:09.388Z,1028.51
2023-05-19T01:33:18.669Z,1028.47
2023-05-19T01:33:28.111Z,1028.45
2023-05-19T01:33:37.506Z,1028.43
2023-05-19T01:33:56.328Z,1028.45
2023-05-19T01:34:05.738Z,1028.50
2023-05-19T01:34:15.129Z,1028.49
2023-05-19T01:34:24.536Z,1028.46
2023-05-19T01:34:33.937Z,1028.47
2023-05-19T01:34:43.308Z,1028.48
2023-05-19T01:35:02.076Z,1028.46
2023-05-19T01:35:11.478Z,1028.47
2023-05-19T01:35:20.855Z,1028.47
2023-05-19T01:35:30.252Z,1028.43
2023-05-19T01:35:39.633Z,1028.44
2023-05-19T01:35:49.033Z,1028.46
2023-05-19T01:36:07.833Z,1028.41
2023-05-19T01:36:17.249Z,1028.45
2023-05-19T01:36:26.628Z,1028.48
2023-05-19T01:36:35.999Z,1028.49
2023-05-19T01:36:45.394Z,1028.54
2023-05-19T01:36:54.784Z,1028.50
2023-05-19T01:37:13.576Z,1028.42
2023-05-19T01:37:22.986Z,1028.44
2023-05-19T01:37:32.383Z,1028.42
2023-05-19T01:37:41.791Z,1028.42
2023-05-19T01:37:51.198Z,1028.47
2023-05-19T01:38:00.590Z,1028.42
2023-05-19T01:38:19.402Z,1028.48
2023-05-19T01:38:28.796Z,1028.50
2023-05-19T01:38:38.163Z,1028.40
2023-05-19T01:38:47.572Z,1028.46
2023-05-19T01:38:56.953Z,1028.44
2023-05-19T01:39:06.325Z,1028.45
2023-05-19T01:39:25.086Z,1028.50
2023-05-19T01:39:34.468Z,1028.43
2023-05-19T01:39:43.856Z,1028.55
2023-05-19T01:39:53.260Z,1028.46
2023-05-19T01:40:02.668Z,1028.45
2023-05-19T01:40:12.095Z,1028.44
2023-05-19T01:40:31.199Z,1028.45
2023-05-19T01:40:40.334Z,1028.49
2023-05-19T01:40:49.714Z,1028.50
2023-05-19T01:40:59.168Z,1028.40
2023-05-19T01:41:08.600Z,1028.38
2023-05-19T01:41:18.008Z,1028.43
2023-05-19T01:41:36.787Z,1028.47
2023-05-19T01:41:46.177Z,1028.49
2023-05-19T01:41:55.547Z,1028.42
2023-05-19T01:42:04.959Z,1028.44
2023-05-19T01:42:14.333Z,1028.38
2023-05-19T01:42:23.726Z,1028.46
2023-05-19T01:42:42.519Z,1028.47
2023-05-19T01:42:51.914Z,1028.41
2023-05-19T01:43:01.342Z,1028.42
2023-05-19T01:43:10.735Z,1028.46
2023-05-19T01:43:20.293Z,1028.39
2023-05-19T01:43:29.541Z,1028.46
2023-05-19T01:43:48.411Z,1028.39
2023-05-19T01:43:57.790Z,1028.38
2023-05-19T01:44:07.177Z,1028.39
2023-05-19T01:44:16.557Z,1028.43
2023-05-19T01:44:25.962Z,1028.41
2023-05-19T01:44:35.332Z,1028.39
2023-05-19T01:44:54.130Z,1028.43
2023-05-19T01:45:03.541Z,1028.45
2023-05-19T01:45:12.926Z,1028.40
2023-05-19T01:45:22.313Z,1028.45
2023-05-19T01:45:31.750Z,1028.39
2023-05-19T01:45:41.149Z,1028.41
2023-05-19T01:45:59.934Z,1028.48
2023-05-19T01:46:09.323Z,1028.44
2023-05-19T01:46:18.766Z,1028.50
2023-05-19T01:46:28.258Z,1028.46
2023-05-19T01:46:37.474Z,1028.42
2023-05-19T01:46:46.824Z,1028.44
2023-05-19T01:47:05.630Z,1028.45
2023-05-19T01:47:15.034Z,1028.36
2023-05-19T01:47:24.445Z,1028.43
2023-05-19T01:47:33.835Z,1028.43
2023-05-19T01:47:43.274Z,1028.39
2023-05-19T01:47:52.670Z,1028.51
2023-05-19T01:48:11.522Z,1028.38
2023-05-19T01:48:20.876Z,1028.40
2023-05-19T01:48:30.250Z,1028.48
2023-05-19T01:48:39.664Z,1028.48
2023-05-19T01:48:49.055Z,1028.44
2023-05-19T01:48:58.458Z,1028.45
2023-05-19T01:49:17.246Z,1028.46
2023-05-19T01:49:26.662Z,1028.41
2023-05-19T01:49:36.078Z,1028.57
2023-05-19T01:49:45.479Z,1028.42
2023-05-19T01:49:54.884Z,1028.52
2023-05-19T01:50:04.277Z,1028.48
2023-05-19T01:50:23.059Z,1028.47
2023-05-19T01:50:32.829Z,1028.50
2023-05-19T01:50:41.909Z,1028.45
2023-05-19T01:50:51.307Z,1028.51
2023-05-19T01:51:00.712Z,1028.40
2023-05-19T01:51:10.093Z,1028.45
2023-05-19T01:51:28.880Z,1028.43
2023-05-19T01:51:38.269Z,1028.39
2023-05-19T01:51:47.679Z,1028.49
2023-05-19T01:51:57.075Z,1028.45
2023-05-19T01:52:06.464Z,1028.50
2023-05-19T01:52:15.850Z,1028.46
2023-05-19T01:52:34.628Z,1028.50
2023-05-19T01:52:44.029Z,1028.46
2023-05-19T01:52:53.420Z,1028.42
2023-05-19T01:53:02.839Z,1028.46
2023-05-19T01:53:12.188Z,1028.46
2023-05-19T01:53:21.588Z,1028.48
2023-05-19T01:53:40.384Z,1028.42
2023-05-19T01:53:49.783Z,1028.46
2023-05-19T01:53:59.174Z,1028.43
2023-05-19T01:54:08.568Z,1028.49
2023-05-19T01:54:17.978Z,1028.49
2023-05-19T01:54:27.390Z,1028.49
2023-05-19T01:54:46.143Z,1028.42
2023-05-19T01:54:55.536Z,1028.50
2023-05-19T01:55:04.936Z,1028.45
2023-05-19T01:55:17.024Z,1028.47
2023-05-19T01:55:26.466Z,1028.47
2023-05-19T01:55:35.878Z,1028.50
2023-05-19T01:55:54.831Z,1028.43
2023-05-19T01:56:04.351Z,1028.44
2023-05-19T01:56:13.748Z,1028.49
2023-05-19T01:56:23.154Z,1028.56
2023-05-19T01:56:32.627Z,1028.45
2023-05-19T01:56:42.078Z,1028.47
2023-05-19T01:57:00.856Z,1028.43
2023-05-19T01:57:10.239Z,1028.48
2023-05-19T01:57:19.644Z,1028.38
2023-05-19T01:57:29.024Z,1028.51
2023-05-19T01:57:38.425Z,1028.51
2023-05-19T01:57:47.834Z,1028.43
2023-05-19T01:58:06.657Z,1028.44
2023-05-19T01:58:16.039Z,1028.47
2023-05-19T01:58:25.452Z,1028.44
2023-05-19T01:58:34.805Z,1028.41
2023-05-19T01:58:44.206Z,1028.50
2023-05-19T01:58:53.636Z,1028.48
2023-05-19T01:59:12.423Z,1028.48
2023-05-19T01:59:21.800Z,1028.48
2023-05-19T01:59:31.180Z,1028.40
2023-05-19T01:59:40.561Z,1028.47
2023-05-19T01:59:49.974Z,1028.42
2023-05-19T01:59:59.383Z,1028.47
2023-05-19T02:00:19.363Z,1028.47
2023-05-19T02:00:27.545Z,1028.47
2023-05-19T02:00:36.930Z,1028.47
2023-05-19T02:00:46.284Z,1028.46
2023-05-19T02:00:55.671Z,1028.47
2023-05-19T02:01:05.089Z,1028.51
2023-05-19T02:01:23.877Z,1028.47
2023-05-19T02:01:33.298Z,1028.53
2023-05-19T02:01:42.783Z,1028.51
2023-05-19T02:01:52.089Z,1028.51
2023-05-19T02:02:01.465Z,1028.44
2023-05-19T02:02:10.847Z,1028.46
2023-05-19T02:02:29.692Z,1028.42
2023-05-19T02:02:39.061Z,1028.52
2023-05-19T02:02:48.479Z,1028.51
2023-05-19T02:02:57.872Z,1028.48
2023-05-19T02:03:07.308Z,1028.46
2023-05-19T02:03:16.621Z,1028.51
2023-05-19T02:03:35.397Z,1028.45
2023-05-19T02:03:44.805Z,1028.45
2023-05-19T02:03:54.233Z,1028.48
2023-05-19T02:04:03.687Z,1028.50
2023-05-19T02:04:13.084Z,1028.43
2023-05-19T02:04:22.473Z,1028.48
2023-05-19T02:04:41.341Z,1028.46
2023-05-19T02:04:50.722Z,1028.45
2023-05-19T02:05:00.061Z,1028.49
2023-05-19T02:05:09.451Z,1028.44
2023-05-19T02:05:18.835Z,1028.44
2023-05-19T02:05:28.246Z,1028.49
2023-05-19T02:05:47.036Z,1028.49
2023-05-19T02:05:56.458Z,1028.52
2023-05-19T02:06:05.836Z,1028.54
2023-05-19T02:06:15.250Z,1028.44
2023-05-19T02:06:24.641Z,1028.44
2023-05-19T02:06:34.026Z,1028.46
2023-05-19T02:06:52.779Z,1028.44
2023-05-19T02:07:02.240Z,1028.47
2023-05-19T02:07:11.566Z,1028.45
2023-05-19T02:07:20.963Z,1028.47
2023-05-19T02:07:30.366Z,1028.44
2023-05-19T02:07:39.767Z,1028.44
2023-05-19T02:07:58.620Z,1028.53
2023-05-19T02:08:08.012Z,1028.50
2023-05-19T02:08:17.408Z,1028.43
2023-05-19T02:08:26.802Z,1028.43
2023-05-19T02:08:36.243Z,1028.50
2023-05-19T02:08:45.624Z,1028.51
2023-05-19T02:09:04.429Z,1028.52
2023-05-19T02:09:13.802Z,1028.49
2023-05-19T02:09:23.249Z,1028.49
2023-05-19T02:09:32.674Z,1028.44
2023-05-19T02:09:42.104Z,1028.48
2023-05-19T02:09:51.472Z,1028.47
2023-05-19T02:10:10.234Z,1028.50
2023-05-19T02:10:19.628Z,1028.54
2023-05-19T02:10:29.047Z,1028.54
2023-05-19T02:10:38.397Z,1028.49
2023-05-19T02:10:47.772Z,1028.48
2023-05-19T02:10:57.160Z,1028.45
2023-05-19T02:11:15.980Z,1028.54
2023-05-19T02:11:25.393Z,1028.47
2023-05-19T02:11:34.773Z,1028.45
2023-05-19T02:11:44.161Z,1028.49
2023-05-19T02:11:53.549Z,1028.46
2023-05-19T02:12:02.947Z,1028.54
2023-05-19T02:12:21.737Z,1028.55
2023-05-19T02:12:31.123Z,1028.54
2023-05-19T02:12:40.519Z,1028.50
2023-05-19T02:12:49.944Z,1028.45
2023-05-19T02:12:59.325Z,1028.49
2023-05-19T02:13:08.757Z,1028.44
2023-05-19T02:13:27.542Z,1028.49
2023-05-19T02:13:36.908Z,1028.44
2023-05-19T02:13:46.291Z,1028.49
2023-05-19T02:13:55.669Z,1028.47
2023-05-19T02:14:05.103Z,1028.48
2023-05-19T02:14:14.480Z,1028.48
2023-05-19T02:14:33.278Z,1028.45
2023-05-19T02:14:42.708Z,1028.53
2023-05-19T02:14:52.103Z,1028.53
2023-05-19T02:15:01.486Z,1028.50
2023-05-19T02:15:10.902Z,1028.45
2023-05-19T02:15:20.279Z,1028.43
2023-05-19T02:15:39.117Z,1028.47
2023-05-19T02:15:48.512Z,1028.48
2023-05-19T02:15:57.910Z,1028.55
2023-05-19T02:16:07.330Z,1028.52
2023-05-19T02:16:16.741Z,1028.47
2023-05-19T02:16:26.203Z,1028.48
2023-05-19T02:16:44.819Z,1028.51
2023-05-19T02:16:54.253Z,1028.41
2023-05-19T02:17:03.642Z,1028.46
2023-05-19T02:17:13.027Z,1028.46
2023-05-19T02:17:22.552Z,1028.50
2023-05-19T02:17:31.930Z,1028.46
2023-05-19T02:17:50.962Z,1028.46
2023-05-19T02:18:00.171Z,1028.51
2023-05-19T02:18:09.471Z,1028.46
2023-05-19T02:18:18.867Z,1028.49
2023-05-19T02:18:28.260Z,1028.46
2023-05-19T02:18:37.703Z,1028.42
2023-05-19T02:18:56.501Z,1028.44
2023-05-19T02:19:05.856Z,1028.42
2023-05-19T02:19:15.254Z,1028.49
2023-05-19T02:19:24.742Z,1028.47
2023-05-19T02:19:34.009Z,1028.39
2023-05-19T02:19:43.409Z,1028.47
2023-05-19T02:20:02.236Z,1028.41
2023-05-19T02:20:11.616Z,1028.44
2023-05-19T02:20:21.013Z,1028.42
2023-05-19T02:20:30.643Z,1028.49
2023-05-19T02:20:39.890Z,1028.45
2023-05-19T02:20:49.268Z,1028.49
2023-05-19T02:21:08.042Z,1028.48
2023-05-19T02:21:17.435Z,1028.41
2023-05-19T02:21:26.818Z,1028.43
2023-05-19T02:21:36.268Z,1028.46
2023-05-19T02:21:45.688Z,1028.41
2023-05-19T02:21:55.109Z,1028.40
2023-05-19T02:22:13.893Z,1028.43
2023-05-19T02:22:23.266Z,1028.40
2023-05-19T02:22:32.637Z,1028.40